createdAt,value
2023-03-21T00:01:29.501Z,13.15
2023-03-21T00:04:44.580Z,11.60
2023-03-21T00:07:53.612Z,11.38
2023-03-21T00:11:01.509Z,10.63
2023-03-21T00:14:04.577Z,12.40
2023-03-21T00:17:07.305Z,11.73
2023-03-21T00:20:15.475Z,12.32
2023-03-21T00:23:18.157Z,14.10
2023-03-21T00:26:22.610Z,11.10
2023-03-21T00:29:25.282Z,11.00
2023-03-21T00:32:27.911Z,13.82
2023-03-21T00:38:53.776Z,12.70
2023-03-21T00:41:56.438Z,11.88
2023-03-21T00:45:02.007Z,14.60
2023-03-21T00:48:05.996Z,12.20
2023-03-21T00:51:25.988Z,16.30
2023-03-21T00:54:28.517Z,11.98
2023-03-21T00:57:38.624Z,15.02
2023-03-21T01:00:43.743Z,11.75
2023-03-21T01:03:51.060Z,14.00
2023-03-21T01:06:55.181Z,17.85
2023-03-21T01:09:57.733Z,13.02
2023-03-21T01:13:01.449Z,15.45
2023-03-21T01:16:07.463Z,14.48
2023-03-21T01:19:23.949Z,14.15
2023-03-21T01:22:27.441Z,14.43
2023-03-21T01:25:29.949Z,13.65
2023-03-21T01:28:33.596Z,14.77
2023-03-21T01:31:36.410Z,13.63
2023-03-21T01:34:39.302Z,12.68
2023-03-21T01:37:43.696Z,15.60
2023-03-21T01:40:48.768Z,12.23
2023-03-21T01:44:06.043Z,13.85
2023-03-21T01:47:16.165Z,14.23
2023-03-21T01:50:22.355Z,12.75
2023-03-21T01:53:37.994Z,13.25
2023-03-21T01:56:43.167Z,14.68
2023-03-21T01:59:54.394Z,14.65
2023-03-21T02:03:29.494Z,12.07
2023-03-21T02:07:25.731Z,12.13
2023-03-21T02:10:32.846Z,15.52
2023-03-21T02:13:37.704Z,12.48
2023-03-21T02:16:55.351Z,14.45
2023-03-21T02:20:01.502Z,13.90
2023-03-21T02:23:39.535Z,12.75
2023-03-21T02:27:07.099Z,12.90
2023-03-21T02:30:49.281Z,15.02
2023-03-21T02:34:27.389Z,11.02
2023-03-21T02:37:38.911Z,12.23
2023-03-21T02:40:57.040Z,14.43
2023-03-21T02:44:14.635Z,11.77
2023-03-21T02:47:29.684Z,14.60
2023-03-21T02:50:44.095Z,13.48
2023-03-21T02:54:16.172Z,12.80
2023-03-21T02:57:18.552Z,14.52
2023-03-21T03:00:25.891Z,14.02
2023-03-21T03:03:34.491Z,12.43
2023-03-21T03:07:17.881Z,12.05
2023-03-21T03:10:53.250Z,11.80
2023-03-21T03:14:53.132Z,12.73
2023-03-21T03:17:48.743Z,10.88
2023-03-21T03:21:08.746Z,12.23
2023-03-21T03:24:20.597Z,12.15
2023-03-21T03:27:29.830Z,11.23
2023-03-21T03:30:43.108Z,13.07
2023-03-21T03:33:53.909Z,12.68
2023-03-21T03:36:59.420Z,10.85
2023-03-21T03:40:28.432Z,13.48
2023-03-21T03:43:48.864Z,17.58
2023-03-21T03:46:58.755Z,13.65
2023-03-21T03:50:04.124Z,11.90
2023-03-21T03:53:48.241Z,10.80
2023-03-21T03:56:51.410Z,11.27
2023-03-21T03:59:54.103Z,9.77
2023-03-21T04:03:04.119Z,10.57
2023-03-21T04:06:07.423Z,11.30
2023-03-21T04:09:20.711Z,12.48
2023-03-21T04:12:25.671Z,12.20
2023-03-21T04:15:46.752Z,13.05
2023-03-21T04:18:52.553Z,12.48
2023-03-21T04:21:55.715Z,12.43
2023-03-21T04:25:00.482Z,9.90
2023-03-21T04:28:04.592Z,12.00
2023-03-21T04:31:36.844Z,10.50
2023-03-21T04:34:54.267Z,13.07
2023-03-21T04:37:58.229Z,12.23
2023-03-21T04:41:01.294Z,9.15
2023-03-21T04:44:06.240Z,14.43
2023-03-21T04:47:09.014Z,12.40
2023-03-21T04:50:13.374Z,11.93
2023-03-21T04:53:16.501Z,10.43
2023-03-21T04:56:19.359Z,11.60
2023-03-21T04:59:21.883Z,11.45
2023-03-21T05:02:24.885Z,11.02
2023-03-21T05:05:27.626Z,11.07
2023-03-21T05:08:30.388Z,13.40
2023-03-21T05:11:38.827Z,10.75
2023-03-21T05:14:41.709Z,11.02
2023-03-21T05:17:44.366Z,11.23
2023-03-21T05:20:47.232Z,12.50
2023-03-21T05:23:58.361Z,10.18
2023-03-21T05:27:04.069Z,12.23
2023-03-21T05:30:17.802Z,14.90
2023-03-21T05:33:22.861Z,13.60
2023-03-21T05:36:25.463Z,14.25
2023-03-21T05:39:28.061Z,10.25
2023-03-21T05:42:38.753Z,12.30
2023-03-21T05:45:50.728Z,14.98
2023-03-21T05:48:54.940Z,12.65
2023-03-21T05:51:58.758Z,15.18
2023-03-21T05:55:01.457Z,11.23
2023-03-21T05:58:04.730Z,11.30
2023-03-21T06:01:07.717Z,12.50
2023-03-21T06:04:13.284Z,11.35
2023-03-21T06:07:16.210Z,12.20
2023-03-21T06:10:19.520Z,17.20
2023-03-21T06:13:24.906Z,13.05
2023-03-21T06:16:28.898Z,15.48
2023-03-21T06:19:32.069Z,10.40
2023-03-21T06:22:43.055Z,10.95
2023-03-21T06:25:48.349Z,9.45
2023-03-21T06:28:51.890Z,9.48
2023-03-21T06:31:54.491Z,9.93
2023-03-21T06:34:57.211Z,8.77
2023-03-21T06:38:00.539Z,9.30
2023-03-21T06:41:07.720Z,10.77
2023-03-21T06:44:16.619Z,9.75
2023-03-21T06:47:28.271Z,12.18
2023-03-21T06:50:31.462Z,12.70
2023-03-21T06:53:36.073Z,9.40
2023-03-21T07:00:05.678Z,9.77
2023-03-21T07:03:09.473Z,10.52
2023-03-21T07:06:13.671Z,10.35
2023-03-21T07:09:18.286Z,9.93
2023-03-21T07:12:23.498Z,12.05
2023-03-21T07:15:56.053Z,10.32
2023-03-21T07:19:01.823Z,12.93
2023-03-21T07:22:04.976Z,12.30
2023-03-21T07:25:08.147Z,12.52
2023-03-21T07:28:16.337Z,9.85
2023-03-21T07:31:20.274Z,10.48
2023-03-21T07:34:24.219Z,12.45
2023-03-21T07:37:27.098Z,10.35
2023-03-21T07:40:30.358Z,9.43
2023-03-21T07:43:33.190Z,9.55
2023-03-21T07:46:35.993Z,9.05
2023-03-21T07:49:38.604Z,8.02
2023-03-21T07:52:42.505Z,9.98
2023-03-21T07:55:45.121Z,9.18
2023-03-21T07:58:47.986Z,13.70
2023-03-21T08:01:51.145Z,10.52
2023-03-21T08:04:53.957Z,10.00
2023-03-21T08:07:57.489Z,10.20
2023-03-21T08:11:00.405Z,10.02
2023-03-21T08:14:03.570Z,7.18
2023-03-21T08:17:06.983Z,9.93
2023-03-21T08:20:13.617Z,10.82
2023-03-21T08:23:16.239Z,9.43
2023-03-21T08:26:19.483Z,7.72
2023-03-21T08:29:23.070Z,7.47
2023-03-21T08:32:29.494Z,9.25
2023-03-21T08:35:32.240Z,9.40
2023-03-21T08:38:36.084Z,9.00
2023-03-21T08:41:38.836Z,9.95
2023-03-21T08:44:41.626Z,8.80
2023-03-21T08:47:44.436Z,6.38
2023-03-21T08:50:47.232Z,7.97
2023-03-21T08:53:51.576Z,7.18
2023-03-21T08:56:54.705Z,8.13
2023-03-21T08:59:57.539Z,6.50
2023-03-21T09:03:00.408Z,6.03
2023-03-21T09:06:03.089Z,6.03
2023-03-21T09:09:07.810Z,5.35
2023-03-21T09:12:10.550Z,5.97
2023-03-21T09:15:14.321Z,5.45
2023-03-21T09:18:40.641Z,4.78
2023-03-21T09:21:44.195Z,4.65
2023-03-21T09:27:52.569Z,7.20
2023-03-21T09:30:55.427Z,5.18
2023-03-21T09:33:59.032Z,5.93
2023-03-21T09:37:02.338Z,4.22
2023-03-21T09:40:08.543Z,4.88
2023-03-21T09:43:32.184Z,3.70
2023-03-21T09:46:57.461Z,9.85
2023-03-21T09:50:13.993Z,6.80
2023-03-21T09:53:28.985Z,7.25
2023-03-21T09:56:31.656Z,4.90
2023-03-21T09:59:40.379Z,4.13
2023-03-21T10:02:47.304Z,7.82
2023-03-21T10:05:52.935Z,3.65
2023-03-21T10:09:15.541Z,6.13
2023-03-21T10:12:22.584Z,8.20
2023-03-21T10:15:27.132Z,4.30
2023-03-21T10:18:31.887Z,4.28
2023-03-21T10:24:57.232Z,7.65
2023-03-21T10:28:01.857Z,5.43
2023-03-21T10:31:08.024Z,5.65
2023-03-21T10:34:20.794Z,4.18
2023-03-21T10:37:24.943Z,5.20
2023-03-21T10:40:27.604Z,4.85
2023-03-21T10:43:34.967Z,5.10
2023-03-21T10:46:38.318Z,5.30
2023-03-21T10:50:05.847Z,4.93
2023-03-21T10:53:31.484Z,8.40
2023-03-21T10:56:40.771Z,4.32
2023-03-21T10:59:49.617Z,6.35
2023-03-21T11:02:54.430Z,3.58
2023-03-21T11:06:02.809Z,8.25
2023-03-21T11:09:15.776Z,4.50
2023-03-21T11:12:29.721Z,6.18
2023-03-21T11:15:38.156Z,3.70
2023-03-21T11:18:44.281Z,6.00
2023-03-21T11:21:47.132Z,5.53
2023-03-21T11:24:53.392Z,4.07
2023-03-21T11:27:56.578Z,4.57
2023-03-21T11:31:03.783Z,5.47
2023-03-21T11:34:08.589Z,5.38
2023-03-21T11:37:28.018Z,10.73
2023-03-21T11:40:35.744Z,4.75
2023-03-21T11:43:39.607Z,7.82
2023-03-21T11:46:42.352Z,5.80
2023-03-21T11:49:45.226Z,5.55
2023-03-21T11:56:50.481Z,5.40
2023-03-21T12:04:04.817Z,4.10
2023-03-21T12:07:36.755Z,5.03
2023-03-21T12:10:46.363Z,5.95
2023-03-21T12:13:59.665Z,5.88
2023-03-21T12:17:02.610Z,7.30
2023-03-21T12:20:30.412Z,6.60
2023-03-21T12:23:48.019Z,9.20
2023-03-21T12:27:23.719Z,7.43
2023-03-21T12:30:38.369Z,6.80
2023-03-21T12:34:00.152Z,7.53
2023-03-21T12:41:18.313Z,6.03
2023-03-21T12:44:24.342Z,6.35
2023-03-21T12:50:53.391Z,6.55
2023-03-21T12:54:53.961Z,8.52
2023-03-21T12:58:14.750Z,10.38
2023-03-21T13:01:20.492Z,4.57
2023-03-21T13:04:37.043Z,4.57
2023-03-21T13:07:43.378Z,4.15
2023-03-21T13:10:48.035Z,4.93
2023-03-21T13:14:29.292Z,4.63
2023-03-21T13:17:39.856Z,5.78
2023-03-21T13:20:51.431Z,9.15
2023-03-21T13:24:01.756Z,8.57
2023-03-21T13:27:10.772Z,8.07
2023-03-21T13:30:27.616Z,4.22
2023-03-21T13:33:30.576Z,5.45
2023-03-21T13:36:37.907Z,5.15
2023-03-21T13:39:46.007Z,6.20
2023-03-21T13:42:54.192Z,5.47
2023-03-21T13:45:57.001Z,4.68
2023-03-21T13:49:09.894Z,4.75
2023-03-21T13:52:12.521Z,5.88
2023-03-21T13:55:19.717Z,5.22
2023-03-21T13:58:40.056Z,4.55
2023-03-21T14:02:13.590Z,5.47
2023-03-21T14:05:22.424Z,9.80
2023-03-21T14:08:37.195Z,8.77
2023-03-21T14:11:44.565Z,5.10
2023-03-21T14:15:06.754Z,4.22
2023-03-21T14:18:27.720Z,6.03
2023-03-21T14:21:38.609Z,3.88
2023-03-21T14:24:46.910Z,7.70
2023-03-21T14:27:53.898Z,4.00
2023-03-21T14:31:00.120Z,3.78
2023-03-21T14:34:04.293Z,4.20
2023-03-21T14:37:07.963Z,4.05
2023-03-21T14:40:26.709Z,6.35
2023-03-21T14:43:31.333Z,6.30
2023-03-21T14:46:34.095Z,4.20
2023-03-21T14:49:38.430Z,4.15
2023-03-21T14:52:41.503Z,4.45
2023-03-21T14:55:47.754Z,5.93
2023-03-21T14:58:52.525Z,4.18
2023-03-21T15:01:55.940Z,6.82
2023-03-21T15:05:09.011Z,4.00
2023-03-21T15:08:11.776Z,6.63
2023-03-21T15:11:15.566Z,5.20
2023-03-21T15:14:30.666Z,3.42
2023-03-21T15:17:33.351Z,3.47
2023-03-21T15:20:38.472Z,4.97
2023-03-21T15:23:44.659Z,4.45
2023-03-21T15:26:49.243Z,5.95
2023-03-21T15:29:57.037Z,4.35
2023-03-21T15:33:07.651Z,4.82
2023-03-21T15:36:11.487Z,8.07
2023-03-21T15:39:17.265Z,7.20
2023-03-21T15:42:30.228Z,7.97
2023-03-21T15:45:33.072Z,7.50
2023-03-21T15:48:36.310Z,5.57
2023-03-21T15:51:41.674Z,6.05
2023-03-21T15:54:55.742Z,5.32
2023-03-21T15:58:06.761Z,6.50
2023-03-21T16:04:20.737Z,9.10
2023-03-21T16:07:25.357Z,7.47
2023-03-21T16:10:32.263Z,6.00
2023-03-21T16:13:34.782Z,6.55
2023-03-21T16:16:38.119Z,5.60
2023-03-21T16:19:43.419Z,5.82
2023-03-21T16:22:47.418Z,8.25
2023-03-21T16:28:59.381Z,6.03
2023-03-21T16:32:06.228Z,7.43
2023-03-21T16:35:09.310Z,9.45
2023-03-21T16:38:13.081Z,8.82
2023-03-21T16:41:17.100Z,8.30
2023-03-21T16:44:20.248Z,5.82
2023-03-21T16:47:25.994Z,6.35
2023-03-21T16:50:28.846Z,9.52
2023-03-21T16:53:31.581Z,8.63
2023-03-21T16:56:46.893Z,8.68
2023-03-21T16:59:49.433Z,9.20
2023-03-21T17:02:53.605Z,9.60
2023-03-21T17:05:56.430Z,9.00
2023-03-21T17:09:01.729Z,7.80
2023-03-21T17:12:09.811Z,9.10
2023-03-21T17:15:13.383Z,10.15
2023-03-21T17:18:16.477Z,9.15
2023-03-21T17:21:24.953Z,8.60
2023-03-21T17:24:28.463Z,10.50
2023-03-21T17:27:31.094Z,8.48
2023-03-21T17:30:40.636Z,8.65
2023-03-21T17:33:44.697Z,8.32
2023-03-21T17:36:48.903Z,10.43
2023-03-21T17:39:51.458Z,7.07
2023-03-21T17:42:55.747Z,10.45
2023-03-21T17:45:59.401Z,9.32
2023-03-21T17:49:03.358Z,10.38
2023-03-21T17:52:07.185Z,10.35
2023-03-21T17:55:09.907Z,9.88
2023-03-21T17:58:13.445Z,7.63
2023-03-21T18:01:16.173Z,12.00
2023-03-21T18:04:20.052Z,9.73
2023-03-21T18:07:54.427Z,8.30
2023-03-21T18:10:46.292Z,9.00
2023-03-21T18:13:49.761Z,11.52
2023-03-21T18:16:54.342Z,10.20
2023-03-21T18:20:00.838Z,9.48
2023-03-21T18:23:04.422Z,10.68
2023-03-21T18:26:11.699Z,7.95
2023-03-21T18:30:15.937Z,11.50
2023-03-21T18:32:41.887Z,10.00
2023-03-21T18:35:46.756Z,11.20
2023-03-21T18:38:50.153Z,11.50
2023-03-21T18:42:00.287Z,10.82
2023-03-21T18:45:04.764Z,11.55
2023-03-21T18:48:08.478Z,11.05
2023-03-21T18:51:12.820Z,11.52
2023-03-21T18:54:16.319Z,8.52
2023-03-21T18:57:36.545Z,15.10
2023-03-21T19:00:43.267Z,13.90
2023-03-21T19:04:11.533Z,14.52
2023-03-21T19:07:11.336Z,11.60
2023-03-21T19:10:18.675Z,10.75
2023-03-21T19:13:24.930Z,12.65
2023-03-21T19:16:32.685Z,17.67
2023-03-21T19:19:46.997Z,13.02
2023-03-21T19:22:52.296Z,12.48
2023-03-21T19:25:56.843Z,9.77
2023-03-21T19:29:03.296Z,10.50
2023-03-21T19:32:09.111Z,10.27
2023-03-21T19:35:14.436Z,8.20
2023-03-21T19:38:38.250Z,14.63
2023-03-21T19:41:41.762Z,27.55
2023-03-21T19:44:45.327Z,12.00
2023-03-21T19:47:48.809Z,12.63
2023-03-21T19:51:24.686Z,13.65
2023-03-21T19:54:19.086Z,10.55
2023-03-21T19:57:25.078Z,12.52
2023-03-21T20:00:29.749Z,8.90
2023-03-21T20:03:33.866Z,8.93
2023-03-21T20:06:40.268Z,8.43
2023-03-21T20:09:51.972Z,11.50
2023-03-21T20:12:58.666Z,8.75
2023-03-21T20:16:03.945Z,11.80
2023-03-21T20:19:10.684Z,8.90
2023-03-21T20:22:24.573Z,9.82
2023-03-21T20:25:33.874Z,11.57
2023-03-21T20:28:54.905Z,9.32
2023-03-21T20:32:05.970Z,10.38
2023-03-21T20:35:20.685Z,11.60
2023-03-21T20:38:35.812Z,13.23
2023-03-21T20:41:39.876Z,8.57
2023-03-21T20:44:58.756Z,9.27
2023-03-21T20:48:03.838Z,11.13
2023-03-21T20:52:14.839Z,13.80
2023-03-21T20:54:35.476Z,12.35
2023-03-21T20:57:40.802Z,9.30
2023-03-21T21:00:45.407Z,9.82
2023-03-21T21:03:49.820Z,12.27
2023-03-21T21:06:53.341Z,11.98
2023-03-21T21:09:57.195Z,10.50
2023-03-21T21:13:00.752Z,9.20
2023-03-21T21:16:05.349Z,10.68
2023-03-21T21:19:08.425Z,10.85
2023-03-21T21:22:11.691Z,10.38
2023-03-21T21:25:15.863Z,10.68
2023-03-21T21:28:30.566Z,12.43
2023-03-21T21:31:34.963Z,12.95
2023-03-21T21:34:37.594Z,13.75
2023-03-21T21:37:42.048Z,15.23
2023-03-21T21:40:48.938Z,14.25
2023-03-21T21:43:52.225Z,13.05
2023-03-21T21:46:55.122Z,9.63
2023-03-21T21:49:57.809Z,51.95
2023-03-21T21:53:04.043Z,22.85
2023-03-21T21:56:07.114Z,14.45
2023-03-21T21:59:09.749Z,15.75
2023-03-21T22:02:16.931Z,14.85
2023-03-21T22:05:21.100Z,11.05
2023-03-21T22:08:23.678Z,13.32
2023-03-21T22:11:26.388Z,11.80
2023-03-21T22:14:28.963Z,13.88
2023-03-21T22:17:31.829Z,13.65
2023-03-21T22:20:34.801Z,14.15
2023-03-21T22:23:38.153Z,12.65
2023-03-21T22:26:40.875Z,13.68
2023-03-21T22:29:43.807Z,16.60
2023-03-21T22:32:56.441Z,16.08
2023-03-21T22:36:05.554Z,13.13
2023-03-21T22:39:08.340Z,14.65
2023-03-21T22:42:10.910Z,14.80
2023-03-21T22:45:14.651Z,17.77
2023-03-21T22:48:17.316Z,16.38
2023-03-21T22:51:21.049Z,13.63
2023-03-21T22:54:23.813Z,14.77
2023-03-21T22:57:26.749Z,13.82
2023-03-21T23:00:33.233Z,15.15
2023-03-21T23:03:35.826Z,16.02
2023-03-21T23:06:39.611Z,15.88
2023-03-21T23:09:42.173Z,14.13
2023-03-21T23:12:44.942Z,20.83
2023-03-21T23:15:47.460Z,16.08
2023-03-21T23:18:51.231Z,17.90
2023-03-21T23:21:53.817Z,18.52
2023-03-21T23:24:56.535Z,19.58
2023-03-21T23:27:59.763Z,19.95
2023-03-21T23:31:10.798Z,18.63
2023-03-21T23:34:13.867Z,18.77
2023-03-21T23:37:16.657Z,15.55
2023-03-21T23:40:20.456Z,17.50
2023-03-21T23:43:23.250Z,16.00
2023-03-21T23:46:25.981Z,16.30
2023-03-21T23:49:29.045Z,14.75
2023-03-21T23:52:31.966Z,18.23
2023-03-21T23:55:37.971Z,17.70
2023-03-21T23:58:40.763Z,16.40
